sensor_id;sensor_type;location;lat;lon;timestamp;P1;durP1;ratioP1;P2;durP2;ratioP2
19828;SDS011;10075;50.924;4.396;2024-02-21T00:01:55;22.63;;;9.03;;
19828;SDS011;10075;50.924;4.396;2024-02-21T00:04:23;26.97;;;9.20;;
19828;SDS011;10075;50.924;4.396;2024-02-21T00:06:50;18.80;;;7.90;;
19828;SDS011;10075;50.924;4.396;2024-02-21T00:09:17;24.33;;;8.70;;
19828;SDS011;10075;50.924;4.396;2024-02-21T00:11:46;19.03;;;8.30;;
19828;SDS011;10075;50.924;4.396;2024-02-21T00:14:13;22.97;;;8.90;;
19828;SDS011;10075;50.924;4.396;2024-02-21T00:16:40;21.60;;;8.77;;
19828;SDS011;10075;50.924;4.396;2024-02-21T00:19:07;24.57;;;8.80;;
19828;SDS011;10075;50.924;4.396;2024-02-21T00:21:35;26.63;;;9.30;;
19828;SDS011;10075;50.924;4.396;2024-02-21T00:24:02;21.57;;;8.10;;
19828;SDS011;10075;50.924;4.396;2024-02-21T00:26:29;16.87;;;8.63;;
19828;SDS011;10075;50.924;4.396;2024-02-21T00:28:56;21.43;;;8.27;;
19828;SDS011;10075;50.924;4.396;2024-02-21T00:31:23;21.30;;;8.30;;
19828;SDS011;10075;50.924;4.396;2024-02-21T00:33:50;23.70;;;8.77;;
19828;SDS011;10075;50.924;4.396;2024-02-21T00:36:17;17.80;;;8.23;;
19828;SDS011;10075;50.924;4.396;2024-02-21T00:38:45;23.33;;;9.27;;
19828;SDS011;10075;50.924;4.396;2024-02-21T00:41:12;24.03;;;8.87;;
19828;SDS011;10075;50.924;4.396;2024-02-21T00:43:39;21.13;;;8.43;;
19828;SDS011;10075;50.924;4.396;2024-02-21T00:46:06;20.03;;;7.97;;
19828;SDS011;10075;50.924;4.396;2024-02-21T00:48:33;21.77;;;7.90;;
19828;SDS011;10075;50.924;4.396;2024-02-21T00:51:00;18.67;;;8.07;;
19828;SDS011;10075;50.924;4.396;2024-02-21T00:53:27;22.00;;;8.67;;
19828;SDS011;10075;50.924;4.396;2024-02-21T00:55:55;21.40;;;8.33;;
19828;SDS011;10075;50.924;4.396;2024-02-21T00:58:22;21.80;;;8.87;;
19828;SDS011;10075;50.924;4.396;2024-02-21T01:00:49;20.87;;;8.60;;
19828;SDS011;10075;50.924;4.396;2024-02-21T01:03:16;21.07;;;8.40;;
19828;SDS011;10075;50.924;4.396;2024-02-21T01:05:43;22.87;;;9.43;;
19828;SDS011;10075;50.924;4.396;2024-02-21T01:08:11;19.87;;;8.70;;
19828;SDS011;10075;50.924;4.396;2024-02-21T01:10:38;24.17;;;8.97;;
19828;SDS011;10075;50.924;4.396;2024-02-21T01:13:06;22.23;;;8.57;;
19828;SDS011;10075;50.924;4.396;2024-02-21T01:15:33;24.00;;;8.83;;
19828;SDS011;10075;50.924;4.396;2024-02-21T01:18:00;24.37;;;9.70;;
19828;SDS011;10075;50.924;4.396;2024-02-21T01:20:27;27.50;;;9.30;;
19828;SDS011;10075;50.924;4.396;2024-02-21T01:22:54;25.83;;;9.00;;
19828;SDS011;10075;50.924;4.396;2024-02-21T01:25:21;20.93;;;8.50;;
19828;SDS011;10075;50.924;4.396;2024-02-21T01:27:48;19.93;;;8.10;;
19828;SDS011;10075;50.924;4.396;2024-02-21T01:30:17;21.60;;;8.33;;
19828;SDS011;10075;50.924;4.396;2024-02-21T01:32:44;22.37;;;9.30;;
19828;SDS011;10075;50.924;4.396;2024-02-21T01:35:11;22.03;;;8.50;;
19828;SDS011;10075;50.924;4.396;2024-02-21T01:37:37;18.13;;;8.90;;
19828;SDS011;10075;50.924;4.396;2024-02-21T01:40:05;19.37;;;8.40;;
19828;SDS011;10075;50.924;4.396;2024-02-21T01:42:32;22.60;;;8.57;;
19828;SDS011;10075;50.924;4.396;2024-02-21T01:44:59;16.90;;;8.30;;
19828;SDS011;10075;50.924;4.396;2024-02-21T01:47:27;21.33;;;9.20;;
19828;SDS011;10075;50.924;4.396;2024-02-21T01:49:54;17.87;;;8.50;;
19828;SDS011;10075;50.924;4.396;2024-02-21T01:52:22;23.23;;;8.43;;
19828;SDS011;10075;50.924;4.396;2024-02-21T01:54:49;20.20;;;8.77;;
19828;SDS011;10075;50.924;4.396;2024-02-21T01:57:16;23.37;;;9.27;;
19828;SDS011;10075;50.924;4.396;2024-02-21T01:59:43;21.90;;;9.00;;
19828;SDS011;10075;50.924;4.396;2024-02-21T02:02:10;23.73;;;9.73;;
19828;SDS011;10075;50.924;4.396;2024-02-21T02:04:39;21.57;;;9.57;;
19828;SDS011;10075;50.924;4.396;2024-02-21T02:07:06;24.83;;;10.07;;
19828;SDS011;10075;50.924;4.396;2024-02-21T02:09:33;24.87;;;10.40;;
19828;SDS011;10075;50.924;4.396;2024-02-21T02:12:01;23.00;;;10.27;;
19828;SDS011;10075;50.924;4.396;2024-02-21T02:14:28;33.60;;;12.13;;
19828;SDS011;10075;50.924;4.396;2024-02-21T02:16:55;23.63;;;10.70;;
19828;SDS011;10075;50.924;4.396;2024-02-21T02:19:22;26.17;;;10.83;;
19828;SDS011;10075;50.924;4.396;2024-02-21T02:21:51;21.60;;;10.37;;
19828;SDS011;10075;50.924;4.396;2024-02-21T02:24:23;19.70;;;10.70;;
19828;SDS011;10075;50.924;4.396;2024-02-21T02:26:51;28.03;;;11.37;;
19828;SDS011;10075;50.924;4.396;2024-02-21T02:29:18;24.87;;;10.90;;
19828;SDS011;10075;50.924;4.396;2024-02-21T02:31:45;25.50;;;10.37;;
19828;SDS011;10075;50.924;4.396;2024-02-21T02:34:12;27.37;;;12.07;;
19828;SDS011;10075;50.924;4.396;2024-02-21T02:36:39;26.47;;;11.20;;
19828;SDS011;10075;50.924;4.396;2024-02-21T02:39:06;24.47;;;10.93;;
19828;SDS011;10075;50.924;4.396;2024-02-21T02:41:35;30.70;;;11.60;;
19828;SDS011;10075;50.924;4.396;2024-02-21T02:44:02;23.57;;;10.77;;
19828;SDS011;10075;50.924;4.396;2024-02-21T02:46:29;26.70;;;10.80;;
19828;SDS011;10075;50.924;4.396;2024-02-21T02:48:56;30.40;;;11.03;;
19828;SDS011;10075;50.924;4.396;2024-02-21T02:51:23;25.87;;;10.30;;
19828;SDS011;10075;50.924;4.396;2024-02-21T02:53:50;26.03;;;11.03;;
19828;SDS011;10075;50.924;4.396;2024-02-21T02:56:17;25.43;;;10.27;;
19828;SDS011;10075;50.924;4.396;2024-02-21T02:58:48;24.80;;;10.97;;
19828;SDS011;10075;50.924;4.396;2024-02-21T03:01:15;24.87;;;11.60;;
19828;SDS011;10075;50.924;4.396;2024-02-21T03:03:42;26.13;;;10.43;;
19828;SDS011;10075;50.924;4.396;2024-02-21T03:06:10;29.73;;;10.43;;
19828;SDS011;10075;50.924;4.396;2024-02-21T03:08:37;27.40;;;11.47;;
19828;SDS011;10075;50.924;4.396;2024-02-21T03:11:05;24.97;;;11.00;;
19828;SDS011;10075;50.924;4.396;2024-02-21T03:13:32;29.30;;;10.37;;
19828;SDS011;10075;50.924;4.396;2024-02-21T03:16:00;28.00;;;11.20;;
19828;SDS011;10075;50.924;4.396;2024-02-21T03:18:27;26.97;;;10.73;;
19828;SDS011;10075;50.924;4.396;2024-02-21T03:20:54;24.00;;;11.03;;
19828;SDS011;10075;50.924;4.396;2024-02-21T03:23:20;22.73;;;10.30;;
19828;SDS011;10075;50.924;4.396;2024-02-21T03:25:48;28.93;;;11.13;;
19828;SDS011;10075;50.924;4.396;2024-02-21T03:28:15;25.13;;;10.77;;
19828;SDS011;10075;50.924;4.396;2024-02-21T03:30:42;26.47;;;11.20;;
19828;SDS011;10075;50.924;4.396;2024-02-21T03:33:11;19.80;;;10.47;;
19828;SDS011;10075;50.924;4.396;2024-02-21T03:35:38;32.33;;;11.90;;
19828;SDS011;10075;50.924;4.396;2024-02-21T03:38:05;24.57;;;10.93;;
19828;SDS011;10075;50.924;4.396;2024-02-21T03:40:32;20.63;;;10.57;;
19828;SDS011;10075;50.924;4.396;2024-02-21T03:42:59;21.60;;;10.47;;
19828;SDS011;10075;50.924;4.396;2024-02-21T03:45:26;28.00;;;11.63;;
19828;SDS011;10075;50.924;4.396;2024-02-21T03:47:53;26.60;;;11.00;;
19828;SDS011;10075;50.924;4.396;2024-02-21T03:50:21;20.93;;;11.00;;
19828;SDS011;10075;50.924;4.396;2024-02-21T03:52:48;23.07;;;11.13;;
19828;SDS011;10075;50.924;4.396;2024-02-21T03:55:15;21.10;;;10.87;;
19828;SDS011;10075;50.924;4.396;2024-02-21T03:57:42;24.67;;;11.03;;
19828;SDS011;10075;50.924;4.396;2024-02-21T04:00:09;24.03;;;11.60;;
19828;SDS011;10075;50.924;4.396;2024-02-21T04:02:37;28.20;;;11.43;;
19828;SDS011;10075;50.924;4.396;2024-02-21T04:05:04;27.87;;;11.50;;
19828;SDS011;10075;50.924;4.396;2024-02-21T04:07:35;24.93;;;11.40;;
19828;SDS011;10075;50.924;4.396;2024-02-21T04:10:02;30.27;;;11.40;;
19828;SDS011;10075;50.924;4.396;2024-02-21T04:12:29;23.10;;;9.97;;
19828;SDS011;10075;50.924;4.396;2024-02-21T04:14:56;23.37;;;10.90;;
19828;SDS011;10075;50.924;4.396;2024-02-21T04:17:23;23.57;;;11.27;;
19828;SDS011;10075;50.924;4.396;2024-02-21T04:19:50;20.60;;;10.37;;
19828;SDS011;10075;50.924;4.396;2024-02-21T04:22:27;21.80;;;10.33;;
19828;SDS011;10075;50.924;4.396;2024-02-21T04:24:55;23.13;;;10.90;;
19828;SDS011;10075;50.924;4.396;2024-02-21T04:27:22;24.30;;;11.30;;
19828;SDS011;10075;50.924;4.396;2024-02-21T04:29:49;24.80;;;10.97;;
19828;SDS011;10075;50.924;4.396;2024-02-21T04:32:16;24.63;;;10.00;;
19828;SDS011;10075;50.924;4.396;2024-02-21T04:34:43;22.47;;;10.77;;
19828;SDS011;10075;50.924;4.396;2024-02-21T04:37:10;20.97;;;10.37;;
19828;SDS011;10075;50.924;4.396;2024-02-21T04:39:37;23.77;;;10.70;;
19828;SDS011;10075;50.924;4.396;2024-02-21T04:42:05;20.97;;;9.97;;
19828;SDS011;10075;50.924;4.396;2024-02-21T04:44:32;22.73;;;9.83;;
19828;SDS011;10075;50.924;4.396;2024-02-21T04:46:59;25.67;;;9.43;;
19828;SDS011;10075;50.924;4.396;2024-02-21T04:49:26;19.37;;;9.27;;
19828;SDS011;10075;50.924;4.396;2024-02-21T04:51:53;19.73;;;10.10;;
19828;SDS011;10075;50.924;4.396;2024-02-21T04:54:19;21.00;;;10.40;;
19828;SDS011;10075;50.924;4.396;2024-02-21T04:56:46;22.63;;;10.07;;
19828;SDS011;10075;50.924;4.396;2024-02-21T04:59:15;19.60;;;9.67;;
19828;SDS011;10075;50.924;4.396;2024-02-21T05:01:42;27.20;;;10.40;;
19828;SDS011;10075;50.924;4.396;2024-02-21T05:04:09;21.57;;;10.27;;
19828;SDS011;10075;50.924;4.396;2024-02-21T05:06:37;20.23;;;9.43;;
19828;SDS011;10075;50.924;4.396;2024-02-21T05:09:04;17.50;;;8.60;;
19828;SDS011;10075;50.924;4.396;2024-02-21T05:11:32;22.20;;;9.93;;
19828;SDS011;10075;50.924;4.396;2024-02-21T05:13:59;25.63;;;9.87;;
19828;SDS011;10075;50.924;4.396;2024-02-21T05:16:27;22.87;;;9.90;;
19828;SDS011;10075;50.924;4.396;2024-02-21T05:18:54;18.87;;;8.70;;
19828;SDS011;10075;50.924;4.396;2024-02-21T05:21:21;23.47;;;9.60;;
19828;SDS011;10075;50.924;4.396;2024-02-21T05:23:49;16.57;;;9.00;;
19828;SDS011;10075;50.924;4.396;2024-02-21T05:26:19;19.93;;;8.93;;
19828;SDS011;10075;50.924;4.396;2024-02-21T05:28:47;20.23;;;9.63;;
19828;SDS011;10075;50.924;4.396;2024-02-21T05:31:15;19.10;;;8.50;;
19828;SDS011;10075;50.924;4.396;2024-02-21T05:33:43;16.33;;;8.53;;
19828;SDS011;10075;50.924;4.396;2024-02-21T05:36:11;20.97;;;8.63;;
19828;SDS011;10075;50.924;4.396;2024-02-21T05:38:38;20.90;;;9.20;;
19828;SDS011;10075;50.924;4.396;2024-02-21T05:41:05;22.87;;;8.60;;
19828;SDS011;10075;50.924;4.396;2024-02-21T05:43:32;16.83;;;8.33;;
19828;SDS011;10075;50.924;4.396;2024-02-21T05:45:59;17.93;;;8.97;;
19828;SDS011;10075;50.924;4.396;2024-02-21T05:48:26;16.97;;;8.60;;
19828;SDS011;10075;50.924;4.396;2024-02-21T05:50:54;16.03;;;9.83;;
19828;SDS011;10075;50.924;4.396;2024-02-21T05:53:21;16.43;;;8.70;;
19828;SDS011;10075;50.924;4.396;2024-02-21T05:55:48;17.90;;;8.87;;
19828;SDS011;10075;50.924;4.396;2024-02-21T05:58:15;18.10;;;9.10;;
19828;SDS011;10075;50.924;4.396;2024-02-21T06:00:42;16.87;;;9.10;;
19828;SDS011;10075;50.924;4.396;2024-02-21T06:03:08;19.47;;;8.73;;
19828;SDS011;10075;50.924;4.396;2024-02-21T06:05:36;18.47;;;8.87;;
19828;SDS011;10075;50.924;4.396;2024-02-21T06:08:06;16.33;;;8.23;;
19828;SDS011;10075;50.924;4.396;2024-02-21T06:10:34;16.03;;;7.93;;
19828;SDS011;10075;50.924;4.396;2024-02-21T06:13:01;15.97;;;7.97;;
19828;SDS011;10075;50.924;4.396;2024-02-21T06:15:27;18.73;;;8.63;;
19828;SDS011;10075;50.924;4.396;2024-02-21T06:17:54;16.77;;;7.67;;
19828;SDS011;10075;50.924;4.396;2024-02-21T06:20:21;18.80;;;9.13;;
19828;SDS011;10075;50.924;4.396;2024-02-21T06:22:48;17.37;;;7.60;;
19828;SDS011;10075;50.924;4.396;2024-02-21T06:25:17;15.57;;;7.53;;
19828;SDS011;10075;50.924;4.396;2024-02-21T06:27:44;12.97;;;6.90;;
19828;SDS011;10075;50.924;4.396;2024-02-21T06:30:11;12.07;;;7.37;;
19828;SDS011;10075;50.924;4.396;2024-02-21T06:32:38;15.60;;;7.57;;
19828;SDS011;10075;50.924;4.396;2024-02-21T06:35:05;13.53;;;6.20;;
19828;SDS011;10075;50.924;4.396;2024-02-21T06:37:32;14.53;;;7.30;;
19828;SDS011;10075;50.924;4.396;2024-02-21T06:39:59;12.37;;;6.60;;
19828;SDS011;10075;50.924;4.396;2024-02-21T06:42:28;12.03;;;7.43;;
19828;SDS011;10075;50.924;4.396;2024-02-21T06:44:55;16.30;;;7.50;;
19828;SDS011;10075;50.924;4.396;2024-02-21T06:47:22;14.50;;;7.30;;
19828;SDS011;10075;50.924;4.396;2024-02-21T06:49:49;15.67;;;8.70;;
19828;SDS011;10075;50.924;4.396;2024-02-21T06:52:17;14.50;;;8.87;;
19828;SDS011;10075;50.924;4.396;2024-02-21T06:54:45;16.03;;;8.97;;
19828;SDS011;10075;50.924;4.396;2024-02-21T06:57:12;15.93;;;8.53;;
19828;SDS011;10075;50.924;4.396;2024-02-21T06:59:42;18.43;;;9.53;;
19828;SDS011;10075;50.924;4.396;2024-02-21T07:02:09;18.53;;;10.00;;
19828;SDS011;10075;50.924;4.396;2024-02-21T07:04:36;17.27;;;10.17;;
19828;SDS011;10075;50.924;4.396;2024-02-21T07:07:03;15.27;;;9.87;;
19828;SDS011;10075;50.924;4.396;2024-02-21T07:09:30;19.50;;;10.53;;
19828;SDS011;10075;50.924;4.396;2024-02-21T07:11:57;15.43;;;10.13;;
19828;SDS011;10075;50.924;4.396;2024-02-21T07:14:24;14.63;;;10.00;;
19828;SDS011;10075;50.924;4.396;2024-02-21T07:16:53;18.33;;;11.73;;
19828;SDS011;10075;50.924;4.396;2024-02-21T07:19:22;17.37;;;12.23;;
19828;SDS011;10075;50.924;4.396;2024-02-21T07:21:49;23.37;;;12.17;;
19828;SDS011;10075;50.924;4.396;2024-02-21T07:24:16;18.30;;;12.20;;
19828;SDS011;10075;50.924;4.396;2024-02-21T07:26:43;21.47;;;14.23;;
19828;SDS011;10075;50.924;4.396;2024-02-21T07:29:10;26.47;;;17.27;;
19828;SDS011;10075;50.924;4.396;2024-02-21T07:31:41;30.10;;;18.90;;
19828;SDS011;10075;50.924;4.396;2024-02-21T07:34:10;28.70;;;18.30;;
19828;SDS011;10075;50.924;4.396;2024-02-21T07:36:37;32.40;;;18.23;;
19828;SDS011;10075;50.924;4.396;2024-02-21T07:39:04;25.83;;;16.97;;
19828;SDS011;10075;50.924;4.396;2024-02-21T07:41:31;25.60;;;15.97;;
19828;SDS011;10075;50.924;4.396;2024-02-21T07:43:59;21.97;;;14.77;;
19828;SDS011;10075;50.924;4.396;2024-02-21T07:46:28;23.77;;;14.60;;
19828;SDS011;10075;50.924;4.396;2024-02-21T07:48:55;21.60;;;13.53;;
19828;SDS011;10075;50.924;4.396;2024-02-21T07:51:23;22.17;;;12.97;;
19828;SDS011;10075;50.924;4.396;2024-02-21T07:53:54;22.40;;;12.80;;
19828;SDS011;10075;50.924;4.396;2024-02-21T07:56:21;22.17;;;12.37;;
19828;SDS011;10075;50.924;4.396;2024-02-21T07:58:48;25.20;;;12.80;;
19828;SDS011;10075;50.924;4.396;2024-02-21T08:01:18;21.20;;;12.57;;
19828;SDS011;10075;50.924;4.396;2024-02-21T08:03:45;17.60;;;11.00;;
19828;SDS011;10075;50.924;4.396;2024-02-21T08:06:13;21.03;;;10.20;;
19828;SDS011;10075;50.924;4.396;2024-02-21T08:08:41;16.50;;;9.70;;
19828;SDS011;10075;50.924;4.396;2024-02-21T08:11:08;16.80;;;9.07;;
19828;SDS011;10075;50.924;4.396;2024-02-21T08:13:35;14.00;;;8.50;;
19828;SDS011;10075;50.924;4.396;2024-02-21T08:16:02;17.53;;;7.93;;
19828;SDS011;10075;50.924;4.396;2024-02-21T08:18:29;13.70;;;7.50;;
19828;SDS011;10075;50.924;4.396;2024-02-21T08:20:56;14.03;;;7.53;;
19828;SDS011;10075;50.924;4.396;2024-02-21T08:23:23;13.70;;;7.03;;
19828;SDS011;10075;50.924;4.396;2024-02-21T08:25:52;14.47;;;6.70;;
19828;SDS011;10075;50.924;4.396;2024-02-21T08:28:19;11.77;;;6.17;;
19828;SDS011;10075;50.924;4.396;2024-02-21T08:30:46;12.87;;;5.87;;
19828;SDS011;10075;50.924;4.396;2024-02-21T08:33:14;13.57;;;5.87;;
19828;SDS011;10075;50.924;4.396;2024-02-21T08:35:41;10.37;;;5.73;;
19828;SDS011;10075;50.924;4.396;2024-02-21T08:38:08;13.87;;;5.73;;
19828;SDS011;10075;50.924;4.396;2024-02-21T08:40:35;20.83;;;6.07;;
19828;SDS011;10075;50.924;4.396;2024-02-21T08:43:04;12.60;;;5.60;;
19828;SDS011;10075;50.924;4.396;2024-02-21T08:45:31;12.93;;;5.63;;
19828;SDS011;10075;50.924;4.396;2024-02-21T08:47:58;11.53;;;5.47;;
19828;SDS011;10075;50.924;4.396;2024-02-21T08:50:25;8.17;;;4.97;;
19828;SDS011;10075;50.924;4.396;2024-02-21T08:52:52;10.17;;;5.20;;
19828;SDS011;10075;50.924;4.396;2024-02-21T08:55:19;14.40;;;4.73;;
19828;SDS011;10075;50.924;4.396;2024-02-21T08:57:46;11.50;;;4.83;;
19828;SDS011;10075;50.924;4.396;2024-02-21T09:00:15;11.70;;;4.87;;
19828;SDS011;10075;50.924;4.396;2024-02-21T09:02:43;10.83;;;5.20;;
19828;SDS011;10075;50.924;4.396;2024-02-21T09:05:10;8.97;;;4.33;;
19828;SDS011;10075;50.924;4.396;2024-02-21T09:07:37;9.70;;;4.73;;
19828;SDS011;10075;50.924;4.396;2024-02-21T09:10:04;10.53;;;3.93;;
19828;SDS011;10075;50.924;4.396;2024-02-21T09:12:31;12.83;;;5.10;;
19828;SDS011;10075;50.924;4.396;2024-02-21T09:14:58;8.93;;;4.27;;
19828;SDS011;10075;50.924;4.396;2024-02-21T09:17:27;14.40;;;4.20;;
19828;SDS011;10075;50.924;4.396;2024-02-21T09:19:54;11.07;;;4.67;;
19828;SDS011;10075;50.924;4.396;2024-02-21T09:22:24;9.60;;;3.73;;
19828;SDS011;10075;50.924;4.396;2024-02-21T09:24:51;5.30;;;4.00;;
19828;SDS011;10075;50.924;4.396;2024-02-21T09:27:17;6.43;;;3.70;;
19828;SDS011;10075;50.924;4.396;2024-02-21T09:29:44;10.27;;;4.37;;
19828;SDS011;10075;50.924;4.396;2024-02-21T09:32:11;9.50;;;4.00;;
19828;SDS011;10075;50.924;4.396;2024-02-21T09:34:40;10.57;;;4.17;;
19828;SDS011;10075;50.924;4.396;2024-02-21T09:37:07;7.87;;;3.57;;
19828;SDS011;10075;50.924;4.396;2024-02-21T09:39:34;7.53;;;4.03;;
19828;SDS011;10075;50.924;4.396;2024-02-21T09:42:03;8.47;;;4.00;;
19828;SDS011;10075;50.924;4.396;2024-02-21T09:44:33;8.63;;;4.57;;
19828;SDS011;10075;50.924;4.396;2024-02-21T09:47:04;9.50;;;4.20;;
19828;SDS011;10075;50.924;4.396;2024-02-21T09:49:36;7.30;;;4.57;;
19828;SDS011;10075;50.924;4.396;2024-02-21T09:52:07;9.10;;;4.23;;
19828;SDS011;10075;50.924;4.396;2024-02-21T09:54:35;12.50;;;4.13;;
19828;SDS011;10075;50.924;4.396;2024-02-21T09:57:02;7.17;;;3.47;;
19828;SDS011;10075;50.924;4.396;2024-02-21T09:59:31;13.20;;;4.07;;
19828;SDS011;10075;50.924;4.396;2024-02-21T10:01:59;11.17;;;4.40;;
19828;SDS011;10075;50.924;4.396;2024-02-21T10:04:27;11.90;;;4.33;;
19828;SDS011;10075;50.924;4.396;2024-02-21T10:06:54;11.27;;;3.37;;
19828;SDS011;10075;50.924;4.396;2024-02-21T10:09:23;6.87;;;3.20;;
19828;SDS011;10075;50.924;4.396;2024-02-21T10:11:52;7.80;;;3.90;;
19828;SDS011;10075;50.924;4.396;2024-02-21T10:14:20;8.77;;;3.37;;
19828;SDS011;10075;50.924;4.396;2024-02-21T10:16:47;9.93;;;4.07;;
19828;SDS011;10075;50.924;4.396;2024-02-21T10:19:17;5.53;;;3.43;;
19828;SDS011;10075;50.924;4.396;2024-02-21T10:21:57;9.00;;;3.77;;
19828;SDS011;10075;50.924;4.396;2024-02-21T10:24:30;14.20;;;4.23;;
19828;SDS011;10075;50.924;4.396;2024-02-21T10:27:04;7.57;;;3.30;;
19828;SDS011;10075;50.924;4.396;2024-02-21T10:29:33;9.20;;;3.93;;
19828;SDS011;10075;50.924;4.396;2024-02-21T10:32:06;7.53;;;2.97;;
19828;SDS011;10075;50.924;4.396;2024-02-21T10:34:34;8.57;;;3.77;;
19828;SDS011;10075;50.924;4.396;2024-02-21T10:37:02;8.93;;;3.93;;
19828;SDS011;10075;50.924;4.396;2024-02-21T10:39:31;10.40;;;3.67;;
19828;SDS011;10075;50.924;4.396;2024-02-21T10:41:59;8.67;;;3.83;;
19828;SDS011;10075;50.924;4.396;2024-02-21T10:44:29;13.13;;;3.80;;
19828;SDS011;10075;50.924;4.396;2024-02-21T10:46:56;13.23;;;4.13;;
19828;SDS011;10075;50.924;4.396;2024-02-21T10:49:24;11.40;;;3.80;;
19828;SDS011;10075;50.924;4.396;2024-02-21T10:51:54;7.60;;;3.87;;
19828;SDS011;10075;50.924;4.396;2024-02-21T10:57:12;10.07;;;3.70;;
19828;SDS011;10075;50.924;4.396;2024-02-21T10:59:40;11.83;;;4.27;;
19828;SDS011;10075;50.924;4.396;2024-02-21T11:02:08;11.07;;;3.57;;
19828;SDS011;10075;50.924;4.396;2024-02-21T11:04:35;11.23;;;3.50;;
19828;SDS011;10075;50.924;4.396;2024-02-21T11:07:04;8.30;;;3.60;;
19828;SDS011;10075;50.924;4.396;2024-02-21T11:09:32;7.17;;;3.70;;
19828;SDS011;10075;50.924;4.396;2024-02-21T11:12:01;8.63;;;3.23;;
19828;SDS011;10075;50.924;4.396;2024-02-21T11:14:29;11.57;;;3.50;;
19828;SDS011;10075;50.924;4.396;2024-02-21T11:16:58;8.07;;;3.23;;
19828;SDS011;10075;50.924;4.396;2024-02-21T11:19:26;8.83;;;3.60;;
19828;SDS011;10075;50.924;4.396;2024-02-21T11:21:54;6.50;;;2.87;;
19828;SDS011;10075;50.924;4.396;2024-02-21T11:24:28;7.80;;;3.27;;
19828;SDS011;10075;50.924;4.396;2024-02-21T11:26:56;5.90;;;3.10;;
19828;SDS011;10075;50.924;4.396;2024-02-21T11:29:24;9.60;;;3.40;;
19828;SDS011;10075;50.924;4.396;2024-02-21T11:31:52;6.30;;;2.90;;
19828;SDS011;10075;50.924;4.396;2024-02-21T11:34:19;8.47;;;3.20;;
19828;SDS011;10075;50.924;4.396;2024-02-21T11:36:46;6.67;;;3.00;;
19828;SDS011;10075;50.924;4.396;2024-02-21T11:39:18;8.10;;;3.07;;
19828;SDS011;10075;50.924;4.396;2024-02-21T11:41:47;8.93;;;3.13;;
19828;SDS011;10075;50.924;4.396;2024-02-21T11:44:14;8.00;;;3.73;;
19828;SDS011;10075;50.924;4.396;2024-02-21T11:46:42;8.93;;;3.10;;
19828;SDS011;10075;50.924;4.396;2024-02-21T11:49:09;10.43;;;3.50;;
19828;SDS011;10075;50.924;4.396;2024-02-21T11:51:37;8.43;;;3.37;;
19828;SDS011;10075;50.924;4.396;2024-02-21T11:54:04;9.50;;;3.93;;
19828;SDS011;10075;50.924;4.396;2024-02-21T11:56:32;8.87;;;3.53;;
19828;SDS011;10075;50.924;4.396;2024-02-21T11:59:01;9.40;;;4.03;;
19828;SDS011;10075;50.924;4.396;2024-02-21T12:01:28;10.50;;;3.43;;
19828;SDS011;10075;50.924;4.396;2024-02-21T12:03:56;7.80;;;3.47;;
19828;SDS011;10075;50.924;4.396;2024-02-21T12:06:23;7.87;;;3.80;;
19828;SDS011;10075;50.924;4.396;2024-02-21T12:08:50;6.70;;;3.63;;
19828;SDS011;10075;50.924;4.396;2024-02-21T12:11:22;8.53;;;3.60;;
19828;SDS011;10075;50.924;4.396;2024-02-21T12:13:58;8.60;;;3.50;;
19828;SDS011;10075;50.924;4.396;2024-02-21T12:16:28;7.57;;;3.67;;
19828;SDS011;10075;50.924;4.396;2024-02-21T12:18:57;10.47;;;3.83;;
19828;SDS011;10075;50.924;4.396;2024-02-21T12:21:24;12.83;;;3.93;;
19828;SDS011;10075;50.924;4.396;2024-02-21T12:23:53;14.83;;;4.97;;
19828;SDS011;10075;50.924;4.396;2024-02-21T12:26:20;11.03;;;4.30;;
19828;SDS011;10075;50.924;4.396;2024-02-21T12:28:48;11.70;;;3.80;;
19828;SDS011;10075;50.924;4.396;2024-02-21T12:31:15;13.27;;;4.70;;
19828;SDS011;10075;50.924;4.396;2024-02-21T12:33:42;9.73;;;3.97;;
19828;SDS011;10075;50.924;4.396;2024-02-21T12:36:11;8.60;;;3.87;;
19828;SDS011;10075;50.924;4.396;2024-02-21T12:38:38;12.50;;;4.30;;
19828;SDS011;10075;50.924;4.396;2024-02-21T12:41:05;15.47;;;4.60;;
19828;SDS011;10075;50.924;4.396;2024-02-21T12:43:32;11.83;;;4.00;;
19828;SDS011;10075;50.924;4.396;2024-02-21T12:45:59;10.87;;;4.73;;
19828;SDS011;10075;50.924;4.396;2024-02-21T12:48:26;12.57;;;5.37;;
19828;SDS011;10075;50.924;4.396;2024-02-21T12:50:54;11.30;;;4.50;;
19828;SDS011;10075;50.924;4.396;2024-02-21T12:53:22;11.40;;;4.27;;
19828;SDS011;10075;50.924;4.396;2024-02-21T12:55:49;13.40;;;4.40;;
19828;SDS011;10075;50.924;4.396;2024-02-21T12:58:16;12.20;;;4.37;;
19828;SDS011;10075;50.924;4.396;2024-02-21T13:00:43;8.73;;;3.80;;
19828;SDS011;10075;50.924;4.396;2024-02-21T13:03:11;7.53;;;4.23;;
19828;SDS011;10075;50.924;4.396;2024-02-21T13:05:39;12.10;;;3.93;;
19828;SDS011;10075;50.924;4.396;2024-02-21T13:08:06;8.63;;;4.30;;
19828;SDS011;10075;50.924;4.396;2024-02-21T13:10:35;12.30;;;4.33;;
19828;SDS011;10075;50.924;4.396;2024-02-21T13:13:02;10.20;;;4.27;;
19828;SDS011;10075;50.924;4.396;2024-02-21T13:15:29;15.33;;;4.50;;
19828;SDS011;10075;50.924;4.396;2024-02-21T13:17:56;7.07;;;3.88;;
19828;SDS011;10075;50.924;4.396;2024-02-21T13:20:23;7.37;;;4.17;;
19828;SDS011;10075;50.924;4.396;2024-02-21T13:22:51;9.83;;;4.33;;
19828;SDS011;10075;50.924;4.396;2024-02-21T13:25:18;8.75;;;3.40;;
19828;SDS011;10075;50.924;4.396;2024-02-21T13:27:47;9.33;;;3.97;;
19828;SDS011;10075;50.924;4.396;2024-02-21T13:30:14;9.43;;;3.92;;
19828;SDS011;10075;50.924;4.396;2024-02-21T13:32:43;10.47;;;4.13;;
19828;SDS011;10075;50.924;4.396;2024-02-21T13:35:12;10.27;;;4.30;;
19828;SDS011;10075;50.924;4.396;2024-02-21T13:37:39;8.07;;;3.97;;
19828;SDS011;10075;50.924;4.396;2024-02-21T13:40:07;10.50;;;4.17;;
19828;SDS011;10075;50.924;4.396;2024-02-21T13:42:35;11.67;;;4.17;;
19828;SDS011;10075;50.924;4.396;2024-02-21T13:45:04;11.53;;;4.17;;
19828;SDS011;10075;50.924;4.396;2024-02-21T13:47:32;16.13;;;4.63;;
19828;SDS011;10075;50.924;4.396;2024-02-21T13:49:59;8.20;;;4.33;;
19828;SDS011;10075;50.924;4.396;2024-02-21T13:52:26;10.60;;;4.67;;
19828;SDS011;10075;50.924;4.396;2024-02-21T13:54:53;13.30;;;4.80;;
19828;SDS011;10075;50.924;4.396;2024-02-21T13:57:20;12.70;;;5.13;;
19828;SDS011;10075;50.924;4.396;2024-02-21T13:59:47;10.33;;;5.33;;
19828;SDS011;10075;50.924;4.396;2024-02-21T14:02:15;9.33;;;4.80;;
19828;SDS011;10075;50.924;4.396;2024-02-21T14:04:42;8.77;;;4.83;;
19828;SDS011;10075;50.924;4.396;2024-02-21T14:07:09;7.87;;;4.43;;
19828;SDS011;10075;50.924;4.396;2024-02-21T14:09:36;8.43;;;4.43;;
19828;SDS011;10075;50.924;4.396;2024-02-21T14:12:03;8.77;;;5.00;;
19828;SDS011;10075;50.924;4.396;2024-02-21T14:14:33;7.70;;;4.37;;
19828;SDS011;10075;50.924;4.396;2024-02-21T14:17:00;9.23;;;4.83;;
19828;SDS011;10075;50.924;4.396;2024-02-21T14:19:30;12.87;;;5.30;;
19828;SDS011;10075;50.924;4.396;2024-02-21T14:21:57;10.50;;;5.03;;
19828;SDS011;10075;50.924;4.396;2024-02-21T14:24:23;11.73;;;5.67;;
19828;SDS011;10075;50.924;4.396;2024-02-21T14:26:52;11.13;;;5.80;;
19828;SDS011;10075;50.924;4.396;2024-02-21T14:29:19;10.03;;;5.33;;
19828;SDS011;10075;50.924;4.396;2024-02-21T14:31:47;9.83;;;5.10;;
19828;SDS011;10075;50.924;4.396;2024-02-21T14:34:14;8.20;;;5.00;;
19828;SDS011;10075;50.924;4.396;2024-02-21T14:36:42;9.53;;;6.13;;
19828;SDS011;10075;50.924;4.396;2024-02-21T14:39:09;14.07;;;6.83;;